sensor_id;sensor_type;location;lat;lon;timestamp;temperature;humidity
3816;DHT22;1923;48.154;11.536;2024-03-02T00:00:50;8.40;99.90
3816;DHT22;1923;48.154;11.536;2024-03-02T00:03:19;8.40;99.90
3816;DHT22;1923;48.154;11.536;2024-03-02T00:05:51;8.40;99.90
3816;DHT22;1923;48.154;11.536;2024-03-02T00:08:23;8.40;99.90
3816;DHT22;1923;48.154;11.536;2024-03-02T00:10:59;8.30;99.90
3816;DHT22;1923;48.154;11.536;2024-03-02T00:13:28;8.30;99.90
3816;DHT22;1923;48.154;11.536;2024-03-02T00:15:57;8.30;99.90
3816;DHT22;1923;48.154;11.536;2024-03-02T00:18:26;8.20;99.90
3816;DHT22;1923;48.154;11.536;2024-03-02T00:20:56;8.10;99.90
3816;DHT22;1923;48.154;11.536;2024-03-02T00:23:27;8.10;99.90
3816;DHT22;1923;48.154;11.536;2024-03-02T00:25:59;8.00;99.90
3816;DHT22;1923;48.154;11.536;2024-03-02T00:28:30;8.10;99.90
3816;DHT22;1923;48.154;11.536;2024-03-02T00:31:04;8.10;99.90
3816;DHT22;1923;48.154;11.536;2024-03-02T00:33:35;8.10;99.90
3816;DHT22;1923;48.154;11.536;2024-03-02T00:36:04;8.10;99.90
3816;DHT22;1923;48.154;11.536;2024-03-02T00:38:34;8.00;99.90
3816;DHT22;1923;48.154;11.536;2024-03-02T00:41:06;8.10;99.90
3816;DHT22;1923;48.154;11.536;2024-03-02T00:43:49;8.10;99.90
3816;DHT22;1923;48.154;11.536;2024-03-02T00:46:20;8.20;99.90
3816;DHT22;1923;48.154;11.536;2024-03-02T00:48:51;8.10;99.90
3816;DHT22;1923;48.154;11.536;2024-03-02T00:51:21;8.10;99.90
3816;DHT22;1923;48.154;11.536;2024-03-02T00:53:50;8.10;99.90
3816;DHT22;1923;48.154;11.536;2024-03-02T00:56:20;8.00;99.90
3816;DHT22;1923;48.154;11.536;2024-03-02T00:58:48;8.00;99.90
3816;DHT22;1923;48.154;11.536;2024-03-02T01:01:16;8.00;99.90
3816;DHT22;1923;48.154;11.536;2024-03-02T01:03:45;7.90;99.90
3816;DHT22;1923;48.154;11.536;2024-03-02T01:06:13;7.70;99.90
3816;DHT22;1923;48.154;11.536;2024-03-02T01:08:41;7.80;99.90
3816;DHT22;1923;48.154;11.536;2024-03-02T01:11:10;7.80;99.90
3816;DHT22;1923;48.154;11.536;2024-03-02T01:13:39;7.90;99.90
3816;DHT22;1923;48.154;11.536;2024-03-02T01:16:07;7.90;99.90
3816;DHT22;1923;48.154;11.536;2024-03-02T01:18:35;7.90;99.90
3816;DHT22;1923;48.154;11.536;2024-03-02T01:21:04;7.90;99.90
3816;DHT22;1923;48.154;11.536;2024-03-02T01:23:32;7.90;99.90
3816;DHT22;1923;48.154;11.536;2024-03-02T01:26:00;7.90;99.90
3816;DHT22;1923;48.154;11.536;2024-03-02T01:28:28;7.90;99.90
3816;DHT22;1923;48.154;11.536;2024-03-02T01:30:57;7.90;99.90
3816;DHT22;1923;48.154;11.536;2024-03-02T01:33:25;7.90;99.90
3816;DHT22;1923;48.154;11.536;2024-03-02T01:35:53;7.90;99.90
3816;DHT22;1923;48.154;11.536;2024-03-02T01:38:22;7.90;99.90
3816;DHT22;1923;48.154;11.536;2024-03-02T01:40:50;8.00;99.90
3816;DHT22;1923;48.154;11.536;2024-03-02T01:43:18;8.00;99.90
3816;DHT22;1923;48.154;11.536;2024-03-02T01:45:46;8.00;99.90
3816;DHT22;1923;48.154;11.536;2024-03-02T01:48:16;8.00;99.90
3816;DHT22;1923;48.154;11.536;2024-03-02T01:50:44;8.00;99.90
3816;DHT22;1923;48.154;11.536;2024-03-02T01:53:13;8.00;99.90
3816;DHT22;1923;48.154;11.536;2024-03-02T01:55:41;8.00;99.90
3816;DHT22;1923;48.154;11.536;2024-03-02T01:58:09;8.00;99.90
3816;DHT22;1923;48.154;11.536;2024-03-02T02:00:38;7.90;99.90
3816;DHT22;1923;48.154;11.536;2024-03-02T02:03:06;7.90;99.90
3816;DHT22;1923;48.154;11.536;2024-03-02T02:05:36;8.00;99.90
3816;DHT22;1923;48.154;11.536;2024-03-02T02:08:04;8.00;99.90
3816;DHT22;1923;48.154;11.536;2024-03-02T02:10:32;8.00;99.90
3816;DHT22;1923;48.154;11.536;2024-03-02T02:13:01;8.00;99.90
3816;DHT22;1923;48.154;11.536;2024-03-02T02:15:30;7.90;99.90
3816;DHT22;1923;48.154;11.536;2024-03-02T02:17:59;7.90;99.90
3816;DHT22;1923;48.154;11.536;2024-03-02T02:20:26;7.90;99.90
3816;DHT22;1923;48.154;11.536;2024-03-02T02:23:00;7.90;99.90
3816;DHT22;1923;48.154;11.536;2024-03-02T02:25:29;7.80;99.90
3816;DHT22;1923;48.154;11.536;2024-03-02T02:27:58;7.70;99.90
3816;DHT22;1923;48.154;11.536;2024-03-02T02:30:27;7.80;99.90
3816;DHT22;1923;48.154;11.536;2024-03-02T02:32:55;7.80;99.90
3816;DHT22;1923;48.154;11.536;2024-03-02T02:35:24;7.90;99.90
3816;DHT22;1923;48.154;11.536;2024-03-02T02:37:53;7.90;99.90
3816;DHT22;1923;48.154;11.536;2024-03-02T02:40:23;7.90;99.90
3816;DHT22;1923;48.154;11.536;2024-03-02T02:42:51;7.80;99.90
3816;DHT22;1923;48.154;11.536;2024-03-02T02:45:20;7.80;99.90
3816;DHT22;1923;48.154;11.536;2024-03-02T02:47:48;8.00;99.90
3816;DHT22;1923;48.154;11.536;2024-03-02T02:50:17;8.00;99.90
3816;DHT22;1923;48.154;11.536;2024-03-02T02:52:45;8.00;99.90
3816;DHT22;1923;48.154;11.536;2024-03-02T02:55:13;8.00;99.90
3816;DHT22;1923;48.154;11.536;2024-03-02T02:58:27;8.10;99.90
3816;DHT22;1923;48.154;11.536;2024-03-02T03:01:12;8.00;99.90
3816;DHT22;1923;48.154;11.536;2024-03-02T03:03:58;8.20;99.90
3816;DHT22;1923;48.154;11.536;2024-03-02T03:06:44;8.10;99.90
3816;DHT22;1923;48.154;11.536;2024-03-02T03:09:13;8.10;99.90
3816;DHT22;1923;48.154;11.536;2024-03-02T03:11:41;8.20;99.90
3816;DHT22;1923;48.154;11.536;2024-03-02T03:14:10;8.10;99.90
3816;DHT22;1923;48.154;11.536;2024-03-02T03:16:38;8.20;99.90
3816;DHT22;1923;48.154;11.536;2024-03-02T03:19:07;8.20;99.90
3816;DHT22;1923;48.154;11.536;2024-03-02T03:21:35;8.20;99.90
3816;DHT22;1923;48.154;11.536;2024-03-02T03:24:04;8.30;99.90
3816;DHT22;1923;48.154;11.536;2024-03-02T03:26:32;8.30;99.90
3816;DHT22;1923;48.154;11.536;2024-03-02T03:29:03;8.40;99.90
3816;DHT22;1923;48.154;11.536;2024-03-02T03:31:32;8.40;99.90
3816;DHT22;1923;48.154;11.536;2024-03-02T03:34:00;8.40;99.90
3816;DHT22;1923;48.154;11.536;2024-03-02T03:36:28;8.30;99.90
3816;DHT22;1923;48.154;11.536;2024-03-02T03:38:56;8.40;99.90
3816;DHT22;1923;48.154;11.536;2024-03-02T03:41:24;8.40;99.90
3816;DHT22;1923;48.154;11.536;2024-03-02T03:43:52;8.40;99.90
3816;DHT22;1923;48.154;11.536;2024-03-02T03:46:21;8.30;99.90
3816;DHT22;1923;48.154;11.536;2024-03-02T03:48:50;8.40;99.90
3816;DHT22;1923;48.154;11.536;2024-03-02T03:51:19;8.40;99.90
3816;DHT22;1923;48.154;11.536;2024-03-02T03:53:48;8.10;99.90
3816;DHT22;1923;48.154;11.536;2024-03-02T03:56:16;8.00;99.90
3816;DHT22;1923;48.154;11.536;2024-03-02T03:58:44;8.10;99.90
3816;DHT22;1923;48.154;11.536;2024-03-02T04:01:12;8.00;99.90
3816;DHT22;1923;48.154;11.536;2024-03-02T04:03:40;8.00;99.90
3816;DHT22;1923;48.154;11.536;2024-03-02T04:06:09;8.00;99.90
3816;DHT22;1923;48.154;11.536;2024-03-02T04:08:37;7.90;99.90
3816;DHT22;1923;48.154;11.536;2024-03-02T04:11:05;8.00;99.90
3816;DHT22;1923;48.154;11.536;2024-03-02T04:13:34;8.00;99.90
3816;DHT22;1923;48.154;11.536;2024-03-02T04:16:04;7.90;99.90
3816;DHT22;1923;48.154;11.536;2024-03-02T04:18:32;7.90;99.90
3816;DHT22;1923;48.154;11.536;2024-03-02T04:21:00;7.80;99.90
3816;DHT22;1923;48.154;11.536;2024-03-02T04:23:30;7.80;99.90
3816;DHT22;1923;48.154;11.536;2024-03-02T04:25:58;7.80;99.90
3816;DHT22;1923;48.154;11.536;2024-03-02T04:28:26;7.80;99.90
3816;DHT22;1923;48.154;11.536;2024-03-02T04:30:54;8.00;99.90
3816;DHT22;1923;48.154;11.536;2024-03-02T04:33:22;7.90;99.90
3816;DHT22;1923;48.154;11.536;2024-03-02T04:35:50;7.90;99.90
3816;DHT22;1923;48.154;11.536;2024-03-02T04:38:18;8.00;99.90
3816;DHT22;1923;48.154;11.536;2024-03-02T04:40:47;8.00;99.90
3816;DHT22;1923;48.154;11.536;2024-03-02T04:43:15;8.10;99.90
3816;DHT22;1923;48.154;11.536;2024-03-02T04:45:43;8.20;99.90
3816;DHT22;1923;48.154;11.536;2024-03-02T04:48:11;8.20;99.90
3816;DHT22;1923;48.154;11.536;2024-03-02T04:50:41;8.20;99.90
3816;DHT22;1923;48.154;11.536;2024-03-02T04:53:10;8.20;99.90
3816;DHT22;1923;48.154;11.536;2024-03-02T04:55:38;8.20;99.90
3816;DHT22;1923;48.154;11.536;2024-03-02T04:58:25;8.10;99.90
3816;DHT22;1923;48.154;11.536;2024-03-02T05:00:53;8.20;99.90
3816;DHT22;1923;48.154;11.536;2024-03-02T05:03:21;8.20;99.90
3816;DHT22;1923;48.154;11.536;2024-03-02T05:05:52;8.20;99.90
3816;DHT22;1923;48.154;11.536;2024-03-02T05:08:20;8.20;99.90
3816;DHT22;1923;48.154;11.536;2024-03-02T05:10:48;8.30;99.90
3816;DHT22;1923;48.154;11.536;2024-03-02T05:13:16;8.30;99.90
3816;DHT22;1923;48.154;11.536;2024-03-02T05:15:45;8.20;99.90
3816;DHT22;1923;48.154;11.536;2024-03-02T05:18:13;8.20;99.90
3816;DHT22;1923;48.154;11.536;2024-03-02T05:20:44;8.20;99.90
3816;DHT22;1923;48.154;11.536;2024-03-02T05:23:12;8.10;99.90
3816;DHT22;1923;48.154;11.536;2024-03-02T05:25:40;8.10;99.90
3816;DHT22;1923;48.154;11.536;2024-03-02T05:28:08;8.20;99.90
3816;DHT22;1923;48.154;11.536;2024-03-02T05:30:36;8.30;99.90
3816;DHT22;1923;48.154;11.536;2024-03-02T05:33:06;8.40;99.90
3816;DHT22;1923;48.154;11.536;2024-03-02T05:35:34;8.30;99.90
3816;DHT22;1923;48.154;11.536;2024-03-02T05:38:02;8.30;99.90
3816;DHT22;1923;48.154;11.536;2024-03-02T05:40:30;8.30;99.90
3816;DHT22;1923;48.154;11.536;2024-03-02T05:42:58;8.30;99.90
3816;DHT22;1923;48.154;11.536;2024-03-02T05:45:26;8.30;99.90
3816;DHT22;1923;48.154;11.536;2024-03-02T05:47:54;8.40;99.90
3816;DHT22;1923;48.154;11.536;2024-03-02T05:50:24;8.30;99.90
3816;DHT22;1923;48.154;11.536;2024-03-02T05:52:52;8.20;99.90
3816;DHT22;1923;48.154;11.536;2024-03-02T05:55:20;8.10;99.90
3816;DHT22;1923;48.154;11.536;2024-03-02T05:57:49;8.10;99.90
3816;DHT22;1923;48.154;11.536;2024-03-02T06:00:29;8.20;99.90
3816;DHT22;1923;48.154;11.536;2024-03-02T06:02:58;8.30;99.90
3816;DHT22;1923;48.154;11.536;2024-03-02T06:05:27;8.20;99.90
3816;DHT22;1923;48.154;11.536;2024-03-02T06:07:55;8.20;99.90
3816;DHT22;1923;48.154;11.536;2024-03-02T06:10:23;8.20;99.90
3816;DHT22;1923;48.154;11.536;2024-03-02T06:12:52;8.20;99.90
3816;DHT22;1923;48.154;11.536;2024-03-02T06:15:20;8.20;99.90
3816;DHT22;1923;48.154;11.536;2024-03-02T06:17:48;8.20;99.90
3816;DHT22;1923;48.154;11.536;2024-03-02T06:20:16;8.20;99.90
3816;DHT22;1923;48.154;11.536;2024-03-02T06:22:46;8.20;99.90
3816;DHT22;1923;48.154;11.536;2024-03-02T06:25:14;8.20;99.90
3816;DHT22;1923;48.154;11.536;2024-03-02T06:27:42;8.30;99.90
3816;DHT22;1923;48.154;11.536;2024-03-02T06:30:11;8.10;99.90
3816;DHT22;1923;48.154;11.536;2024-03-02T06:32:40;8.20;99.90
3816;DHT22;1923;48.154;11.536;2024-03-02T06:35:08;8.20;99.90
3816;DHT22;1923;48.154;11.536;2024-03-02T06:37:38;8.20;99.90
3816;DHT22;1923;48.154;11.536;2024-03-02T06:40:08;8.20;99.90
3816;DHT22;1923;48.154;11.536;2024-03-02T06:42:36;8.30;99.90
3816;DHT22;1923;48.154;11.536;2024-03-02T06:45:06;8.20;99.90
3816;DHT22;1923;48.154;11.536;2024-03-02T06:47:34;8.30;99.90
3816;DHT22;1923;48.154;11.536;2024-03-02T06:50:02;8.30;99.90
3816;DHT22;1923;48.154;11.536;2024-03-02T06:52:30;8.30;99.90
3816;DHT22;1923;48.154;11.536;2024-03-02T06:54:58;8.40;99.90
3816;DHT22;1923;48.154;11.536;2024-03-02T06:57:28;8.40;99.90
3816;DHT22;1923;48.154;11.536;2024-03-02T06:59:56;8.40;99.90
3816;DHT22;1923;48.154;11.536;2024-03-02T07:02:26;8.50;99.90
3816;DHT22;1923;48.154;11.536;2024-03-02T07:04:54;8.50;99.90
3816;DHT22;1923;48.154;11.536;2024-03-02T07:07:22;8.40;99.90
3816;DHT22;1923;48.154;11.536;2024-03-02T07:09:50;8.60;99.90
3816;DHT22;1923;48.154;11.536;2024-03-02T07:12:18;8.60;99.90
3816;DHT22;1923;48.154;11.536;2024-03-02T07:14:48;8.50;99.90
3816;DHT22;1923;48.154;11.536;2024-03-02T07:17:34;8.60;99.90
3816;DHT22;1923;48.154;11.536;2024-03-02T07:20:04;8.80;99.90
3816;DHT22;1923;48.154;11.536;2024-03-02T07:22:33;8.90;99.90
3816;DHT22;1923;48.154;11.536;2024-03-02T07:25:01;8.80;99.90
3816;DHT22;1923;48.154;11.536;2024-03-02T07:27:31;8.80;99.90
3816;DHT22;1923;48.154;11.536;2024-03-02T07:30:01;9.00;99.90
3816;DHT22;1923;48.154;11.536;2024-03-02T07:32:29;9.00;99.90
3816;DHT22;1923;48.154;11.536;2024-03-02T07:34:57;9.20;99.90
3816;DHT22;1923;48.154;11.536;2024-03-02T07:37:25;9.50;99.90
3816;DHT22;1923;48.154;11.536;2024-03-02T07:39:53;9.80;99.90
3816;DHT22;1923;48.154;11.536;2024-03-02T07:42:21;10.20;99.90
3816;DHT22;1923;48.154;11.536;2024-03-02T07:44:49;10.50;99.90
3816;DHT22;1923;48.154;11.536;2024-03-02T07:47:18;10.90;99.90
3816;DHT22;1923;48.154;11.536;2024-03-02T07:49:48;11.60;99.90
3816;DHT22;1923;48.154;11.536;2024-03-02T07:52:16;12.10;99.90
3816;DHT22;1923;48.154;11.536;2024-03-02T07:54:44;12.50;99.90
3816;DHT22;1923;48.154;11.536;2024-03-02T07:57:13;12.80;99.90
3816;DHT22;1923;48.154;11.536;2024-03-02T07:59:42;12.50;99.90
3816;DHT22;1923;48.154;11.536;2024-03-02T08:02:10;12.50;99.90
3816;DHT22;1923;48.154;11.536;2024-03-02T08:04:40;12.80;99.90
3816;DHT22;1923;48.154;11.536;2024-03-02T08:07:08;13.20;99.90
3816;DHT22;1923;48.154;11.536;2024-03-02T08:09:37;13.30;99.90
3816;DHT22;1923;48.154;11.536;2024-03-02T08:12:05;13.50;99.90
3816;DHT22;1923;48.154;11.536;2024-03-02T08:14:33;13.90;99.90
3816;DHT22;1923;48.154;11.536;2024-03-02T08:17:02;14.50;99.90
3816;DHT22;1923;48.154;11.536;2024-03-02T08:19:36;15.40;99.90
3816;DHT22;1923;48.154;11.536;2024-03-02T08:22:06;16.80;99.90
3816;DHT22;1923;48.154;11.536;2024-03-02T08:24:34;18.20;99.90
3816;DHT22;1923;48.154;11.536;2024-03-02T08:27:03;19.50;99.90
3816;DHT22;1923;48.154;11.536;2024-03-02T08:29:31;20.50;99.90
3816;DHT22;1923;48.154;11.536;2024-03-02T08:31:59;21.50;99.90
3816;DHT22;1923;48.154;11.536;2024-03-02T08:34:27;22.60;98.40
3816;DHT22;1923;48.154;11.536;2024-03-02T08:36:55;23.00;96.80
3816;DHT22;1923;48.154;11.536;2024-03-02T08:39:25;23.20;95.50
3816;DHT22;1923;48.154;11.536;2024-03-02T08:41:53;23.30;94.30
3816;DHT22;1923;48.154;11.536;2024-03-02T08:44:24;21.60;95.30
3816;DHT22;1923;48.154;11.536;2024-03-02T08:46:52;21.10;96.00
3816;DHT22;1923;48.154;11.536;2024-03-02T08:49:20;20.80;96.30
3816;DHT22;1923;48.154;11.536;2024-03-02T08:51:49;21.00;95.70
3816;DHT22;1923;48.154;11.536;2024-03-02T08:54:21;20.80;95.60
3816;DHT22;1923;48.154;11.536;2024-03-02T08:56:51;21.20;95.80
3816;DHT22;1923;48.154;11.536;2024-03-02T08:59:19;21.60;94.60
3816;DHT22;1923;48.154;11.536;2024-03-02T09:01:47;21.90;94.60
3816;DHT22;1923;48.154;11.536;2024-03-02T09:04:16;22.00;94.10
3816;DHT22;1923;48.154;11.536;2024-03-02T09:06:44;21.70;93.60
3816;DHT22;1923;48.154;11.536;2024-03-02T09:09:12;21.10;94.10
3816;DHT22;1923;48.154;11.536;2024-03-02T09:11:40;20.40;94.50
3816;DHT22;1923;48.154;11.536;2024-03-02T09:14:09;19.50;95.60
3816;DHT22;1923;48.154;11.536;2024-03-02T09:16:37;18.70;96.90
3816;DHT22;1923;48.154;11.536;2024-03-02T09:19:08;18.10;98.30
3816;DHT22;1923;48.154;11.536;2024-03-02T09:21:36;18.10;99.50
3816;DHT22;1923;48.154;11.536;2024-03-02T09:24:05;17.70;99.20
3816;DHT22;1923;48.154;11.536;2024-03-02T09:26:33;17.90;99.90
3816;DHT22;1923;48.154;11.536;2024-03-02T09:29:01;18.80;99.30
3816;DHT22;1923;48.154;11.536;2024-03-02T09:31:31;18.70;98.20
3816;DHT22;1923;48.154;11.536;2024-03-02T09:33:59;18.10;99.90
3816;DHT22;1923;48.154;11.536;2024-03-02T09:36:27;17.80;99.80
3816;DHT22;1923;48.154;11.536;2024-03-02T09:38:55;18.50;99.90
3816;DHT22;1923;48.154;11.536;2024-03-02T09:41:23;17.90;99.90
3816;DHT22;1923;48.154;11.536;2024-03-02T09:43:51;18.10;99.70
3816;DHT22;1923;48.154;11.536;2024-03-02T09:46:19;17.60;99.20
3816;DHT22;1923;48.154;11.536;2024-03-02T09:48:49;17.20;99.50
3816;DHT22;1923;48.154;11.536;2024-03-02T09:51:17;17.30;99.10
3816;DHT22;1923;48.154;11.536;2024-03-02T09:53:47;17.30;99.60
3816;DHT22;1923;48.154;11.536;2024-03-02T09:56:15;17.10;99.90
3816;DHT22;1923;48.154;11.536;2024-03-02T09:58:44;16.80;99.90
3816;DHT22;1923;48.154;11.536;2024-03-02T10:01:13;16.20;99.90
3816;DHT22;1923;48.154;11.536;2024-03-02T10:03:41;16.40;99.90
3816;DHT22;1923;48.154;11.536;2024-03-02T10:06:24;16.50;99.90
3816;DHT22;1923;48.154;11.536;2024-03-02T10:08:53;16.90;99.90
3816;DHT22;1923;48.154;11.536;2024-03-02T10:11:29;17.10;99.90
3816;DHT22;1923;48.154;11.536;2024-03-02T10:14:05;16.40;99.90
3816;DHT22;1923;48.154;11.536;2024-03-02T10:16:35;16.40;99.90
3816;DHT22;1923;48.154;11.536;2024-03-02T10:19:18;16.70;99.90
3816;DHT22;1923;48.154;11.536;2024-03-02T10:21:48;16.20;99.90
3816;DHT22;1923;48.154;11.536;2024-03-02T10:24:17;16.30;99.90
3816;DHT22;1923;48.154;11.536;2024-03-02T10:26:45;16.30;99.90
3816;DHT22;1923;48.154;11.536;2024-03-02T10:29:14;16.30;99.90
3816;DHT22;1923;48.154;11.536;2024-03-02T10:31:43;16.70;99.90
3816;DHT22;1923;48.154;11.536;2024-03-02T10:34:13;16.80;99.90
3816;DHT22;1923;48.154;11.536;2024-03-02T10:36:43;17.10;99.90
3816;DHT22;1923;48.154;11.536;2024-03-02T10:39:14;17.30;99.70
3816;DHT22;1923;48.154;11.536;2024-03-02T10:41:44;17.50;99.70
3816;DHT22;1923;48.154;11.536;2024-03-02T10:44:12;17.30;98.70
3816;DHT22;1923;48.154;11.536;2024-03-02T10:46:41;17.50;99.40
3816;DHT22;1923;48.154;11.536;2024-03-02T10:49:11;17.90;99.30
3816;DHT22;1923;48.154;11.536;2024-03-02T10:51:39;17.80;98.20
3816;DHT22;1923;48.154;11.536;2024-03-02T10:54:07;18.40;99.00
3816;DHT22;1923;48.154;11.536;2024-03-02T10:56:39;18.70;97.60
3816;DHT22;1923;48.154;11.536;2024-03-02T10:59:16;19.30;96.80
3816;DHT22;1923;48.154;11.536;2024-03-02T11:01:47;19.40;96.80
3816;DHT22;1923;48.154;11.536;2024-03-02T11:04:18;20.00;96.10
3816;DHT22;1923;48.154;11.536;2024-03-02T11:06:49;20.30;95.10
3816;DHT22;1923;48.154;11.536;2024-03-02T11:09:21;20.10;95.20
3816;DHT22;1923;48.154;11.536;2024-03-02T11:12:02;19.70;95.20
3816;DHT22;1923;48.154;11.536;2024-03-02T11:14:31;20.50;95.00
3816;DHT22;1923;48.154;11.536;2024-03-02T11:17:04;20.30;95.50
3816;DHT22;1923;48.154;11.536;2024-03-02T11:19:33;20.40;95.10
3816;DHT22;1923;48.154;11.536;2024-03-02T11:22:02;21.30;95.20
3816;DHT22;1923;48.154;11.536;2024-03-02T11:24:34;21.60;94.40
3816;DHT22;1923;48.154;11.536;2024-03-02T11:27:06;22.00;93.90
3816;DHT22;1923;48.154;11.536;2024-03-02T11:29:45;21.60;93.20
3816;DHT22;1923;48.154;11.536;2024-03-02T11:32:16;21.00;93.20
3816;DHT22;1923;48.154;11.536;2024-03-02T11:34:46;19.90;94.20
3816;DHT22;1923;48.154;11.536;2024-03-02T11:37:17;18.50;96.30
3816;DHT22;1923;48.154;11.536;2024-03-02T11:39:48;17.70;97.70
3816;DHT22;1923;48.154;11.536;2024-03-02T11:42:18;16.90;98.60
3816;DHT22;1923;48.154;11.536;2024-03-02T11:44:47;16.30;99.80
3816;DHT22;1923;48.154;11.536;2024-03-02T11:47:16;15.60;99.90
3816;DHT22;1923;48.154;11.536;2024-03-02T11:49:48;15.20;99.90
3816;DHT22;1923;48.154;11.536;2024-03-02T11:52:17;15.00;99.90
3816;DHT22;1923;48.154;11.536;2024-03-02T11:54:46;14.70;99.90
3816;DHT22;1923;48.154;11.536;2024-03-02T11:57:17;14.70;99.90
3816;DHT22;1923;48.154;11.536;2024-03-02T11:59:46;14.40;99.90
3816;DHT22;1923;48.154;11.536;2024-03-02T12:02:18;14.30;99.90
3816;DHT22;1923;48.154;11.536;2024-03-02T12:04:48;14.30;99.90
3816;DHT22;1923;48.154;11.536;2024-03-02T12:07:18;14.20;99.90
3816;DHT22;1923;48.154;11.536;2024-03-02T12:09:48;13.90;99.90
3816;DHT22;1923;48.154;11.536;2024-03-02T12:12:17;14.00;99.90
3816;DHT22;1923;48.154;11.536;2024-03-02T12:14:51;13.90;99.90
3816;DHT22;1923;48.154;11.536;2024-03-02T12:17:20;13.90;99.90
3816;DHT22;1923;48.154;11.536;2024-03-02T12:19:48;13.90;99.90
3816;DHT22;1923;48.154;11.536;2024-03-02T12:22:16;13.70;99.90
3816;DHT22;1923;48.154;11.536;2024-03-02T12:24:44;13.70;99.90
3816;DHT22;1923;48.154;11.536;2024-03-02T12:27:15;13.70;99.90
3816;DHT22;1923;48.154;11.536;2024-03-02T12:29:44;13.60;99.90
3816;DHT22;1923;48.154;11.536;2024-03-02T12:32:12;13.70;99.90
3816;DHT22;1923;48.154;11.536;2024-03-02T12:34:41;13.70;99.90
3816;DHT22;1923;48.154;11.536;2024-03-02T12:37:12;13.60;99.90
3816;DHT22;1923;48.154;11.536;2024-03-02T12:39:40;13.60;99.90
3816;DHT22;1923;48.154;11.536;2024-03-02T12:42:12;13.60;99.90
3816;DHT22;1923;48.154;11.536;2024-03-02T12:44:40;13.50;99.90
3816;DHT22;1923;48.154;11.536;2024-03-02T12:47:09;13.50;99.90
3816;DHT22;1923;48.154;11.536;2024-03-02T12:49:40;13.50;99.90
3816;DHT22;1923;48.154;11.536;2024-03-02T12:52:08;13.40;99.90
3816;DHT22;1923;48.154;11.536;2024-03-02T12:54:36;13.30;99.90
3816;DHT22;1923;48.154;11.536;2024-03-02T12:57:06;13.20;99.90
3816;DHT22;1923;48.154;11.536;2024-03-02T12:59:34;13.00;99.90
3816;DHT22;1923;48.154;11.536;2024-03-02T13:02:03;13.10;99.90
3816;DHT22;1923;48.154;11.536;2024-03-02T13:04:33;13.10;99.90
3816;DHT22;1923;48.154;11.536;2024-03-02T13:07:02;13.00;99.90
3816;DHT22;1923;48.154;11.536;2024-03-02T13:09:30;12.80;99.90
3816;DHT22;1923;48.154;11.536;2024-03-02T13:12:00;12.80;99.90
3816;DHT22;1923;48.154;11.536;2024-03-02T13:14:32;12.70;99.90
3816;DHT22;1923;48.154;11.536;2024-03-02T13:17:01;12.80;99.90
3816;DHT22;1923;48.154;11.536;2024-03-02T13:19:33;13.00;99.90
3816;DHT22;1923;48.154;11.536;2024-03-02T13:22:01;12.90;99.90
3816;DHT22;1923;48.154;11.536;2024-03-02T13:24:30;12.90;99.90
3816;DHT22;1923;48.154;11.536;2024-03-02T13:26:59;12.90;99.90
3816;DHT22;1923;48.154;11.536;2024-03-02T13:29:30;12.90;99.90
3816;DHT22;1923;48.154;11.536;2024-03-02T13:31:58;12.80;99.90
3816;DHT22;1923;48.154;11.536;2024-03-02T13:34:26;12.90;99.90
3816;DHT22;1923;48.154;11.536;2024-03-02T13:36:56;13.00;99.90
3816;DHT22;1923;48.154;11.536;2024-03-02T13:39:24;12.90;99.90
3816;DHT22;1923;48.154;11.536;2024-03-02T13:41:53;13.00;99.90
3816;DHT22;1923;48.154;11.536;2024-03-02T13:44:29;12.80;99.90
3816;DHT22;1923;48.154;11.536;2024-03-02T13:46:59;12.90;99.90
3816;DHT22;1923;48.154;11.536;2024-03-02T13:49:27;12.90;99.90
3816;DHT22;1923;48.154;11.536;2024-03-02T13:52:04;12.80;99.90
3816;DHT22;1923;48.154;11.536;2024-03-02T13:54:38;12.80;99.90
3816;DHT22;1923;48.154;11.536;2024-03-02T13:57:08;12.90;99.90
3816;DHT22;1923;48.154;11.536;2024-03-02T13:59:38;12.80;99.90
3816;DHT22;1923;48.154;11.536;2024-03-02T14:02:06;12.70;99.90
3816;DHT22;1923;48.154;11.536;2024-03-02T14:04:36;12.50;99.90
3816;DHT22;1923;48.154;11.536;2024-03-02T14:07:06;12.40;99.90
3816;DHT22;1923;48.154;11.536;2024-03-02T14:09:35;12.40;99.90
3816;DHT22;1923;48.154;11.536;2024-03-02T14:12:05;12.50;99.90
3816;DHT22;1923;48.154;11.536;2024-03-02T14:14:33;12.50;99.90
3816;DHT22;1923;48.154;11.536;2024-03-02T14:17:01;12.50;99.90
3816;DHT22;1923;48.154;11.536;2024-03-02T14:19:32;12.60;99.90
3816;DHT22;1923;48.154;11.536;2024-03-02T14:22:02;12.60;99.90
3816;DHT22;1923;48.154;11.536;2024-03-02T14:24:33;12.60;99.90
3816;DHT22;1923;48.154;11.536;2024-03-02T14:27:02;12.60;99.90
3816;DHT22;1923;48.154;11.536;2024-03-02T14:29:46;12.60;99.90
3816;DHT22;1923;48.154;11.536;2024-03-02T14:32:14;12.60;99.90
3816;DHT22;1923;48.154;11.536;2024-03-02T14:34:42;12.60;99.90
3816;DHT22;1923;48.154;11.536;2024-03-02T14:37:13;12.70;99.90
3816;DHT22;1923;48.154;11.536;2024-03-02T14:39:43;12.60;99.90
3816;DHT22;1923;48.154;11.536;2024-03-02T14:42:11;12.60;99.90
3816;DHT22;1923;48.154;11.536;2024-03-02T14:44:39;12.70;99.90
3816;DHT22;1923;48.154;11.536;2024-03-02T14:47:07;12.80;99.90
3816;DHT22;1923;48.154;11.536;2024-03-02T14:49:35;12.80;99.90
3816;DHT22;1923;48.154;11.536;2024-03-02T14:52:07;12.90;99.90
3816;DHT22;1923;48.154;11.536;2024-03-02T14:54:36;13.00;99.90
3816;DHT22;1923;48.154;11.536;2024-03-02T14:57:06;13.00;99.90
3816;DHT22;1923;48.154;11.536;2024-03-02T14:59:35;12.90;99.90
3816;DHT22;1923;48.154;11.536;2024-03-02T15:02:03;12.90;99.90
3816;DHT22;1923;48.154;11.536;2024-03-02T15:04:31;12.80;99.90
3816;DHT22;1923;48.154;11.536;2024-03-02T15:06:59;12.60;99.90
3816;DHT22;1923;48.154;11.536;2024-03-02T15:09:28;12.80;99.90
3816;DHT22;1923;48.154;11.536;2024-03-02T15:11:56;12.70;99.90
3816;DHT22;1923;48.154;11.536;2024-03-02T15:14:25;12.70;99.90
3816;DHT22;1923;48.154;11.536;2024-03-02T15:16:53;12.70;99.90
3816;DHT22;1923;48.154;11.536;2024-03-02T15:19:23;12.70;99.90
3816;DHT22;1923;48.154;11.536;2024-03-02T15:21:51;12.70;99.90
3816;DHT22;1923;48.154;11.536;2024-03-02T15:24:19;12.60;99.90
3816;DHT22;1923;48.154;11.536;2024-03-02T15:26:47;12.70;99.90
3816;DHT22;1923;48.154;11.536;2024-03-02T15:29:15;12.80;99.90
3816;DHT22;1923;48.154;11.536;2024-03-02T15:31:45;12.60;99.90
3816;DHT22;1923;48.154;11.536;2024-03-02T15:34:13;12.60;99.90
3816;DHT22;1923;48.154;11.536;2024-03-02T15:36:41;12.60;99.90
3816;DHT22;1923;48.154;11.536;2024-03-02T15:39:10;12.60;99.90
3816;DHT22;1923;48.154;11.536;2024-03-02T15:41:39;12.60;99.90
3816;DHT22;1923;48.154;11.536;2024-03-02T15:44:07;12.50;99.90
3816;DHT22;1923;48.154;11.536;2024-03-02T15:46:35;12.60;99.90
3816;DHT22;1923;48.154;11.536;2024-03-02T15:49:05;12.50;99.90
3816;DHT22;1923;48.154;11.536;2024-03-02T15:51:34;12.50;99.90
3816;DHT22;1923;48.154;11.536;2024-03-02T15:54:07;12.40;99.90
3816;DHT22;1923;48.154;11.536;2024-03-02T15:56:35;12.50;99.90
3816;DHT22;1923;48.154;11.536;2024-03-02T15:59:03;12.50;99.90
3816;DHT22;1923;48.154;11.536;2024-03-02T16:01:32;12.50;99.90
3816;DHT22;1923;48.154;11.536;2024-03-02T16:04:00;12.50;99.90
3816;DHT22;1923;48.154;11.536;2024-03-02T16:06:30;12.40;99.90